createdAt,value
2019-04-22T00:01:31.173Z,15.03
2019-04-22T00:04:03.612Z,14.53
2019-04-22T00:06:51.651Z,14.95
2019-04-22T00:09:24.098Z,15.08
2019-04-22T00:12:02.198Z,14.05
2019-04-22T00:14:24.884Z,15.23
2019-04-22T00:17:07.265Z,15.25
2019-04-22T00:19:36.174Z,15.83
2019-04-22T00:22:11.800Z,15.55
2019-04-22T00:24:35.509Z,15.25
2019-04-22T00:27:05.223Z,17.50
2019-04-22T00:29:55.850Z,15.88
2019-04-22T00:32:15.493Z,16.40
2019-04-22T00:34:51.913Z,15.53
2019-04-22T00:37:25.209Z,15.47
2019-04-22T00:39:51.446Z,15.68
2019-04-22T00:42:21.184Z,16.50
2019-04-22T00:44:51.763Z,15.40
2019-04-22T00:47:27.910Z,16.10
2019-04-22T00:50:12.342Z,16.42
2019-04-22T00:52:30.625Z,17.23
2019-04-22T00:54:59.462Z,16.37
2019-04-22T00:57:29.627Z,16.67
2019-04-22T01:00:00.295Z,16.20
2019-04-22T01:02:34.660Z,15.70
2019-04-22T01:05:04.115Z,16.50
2019-04-22T01:07:32.165Z,15.83
2019-04-22T01:10:09.269Z,16.65
2019-04-22T01:12:39.486Z,16.23
2019-04-22T01:15:07.315Z,16.42
2019-04-22T01:17:43.432Z,16.07
2019-04-22T01:20:23.899Z,15.65
2019-04-22T01:22:36.330Z,16.10
2019-04-22T01:25:06.031Z,16.12
2019-04-22T01:27:36.149Z,16.45
2019-04-22T01:30:07.162Z,16.70
2019-04-22T01:35:08.445Z,15.83
2019-04-22T01:37:45.921Z,15.95
2019-04-22T01:40:25.328Z,16.32
2019-04-22T01:45:26.725Z,16.67
2019-04-22T01:48:00.493Z,16.37
2019-04-22T01:50:30.637Z,17.55
2019-04-22T01:53:06.349Z,17.67
2019-04-22T01:58:02.315Z,17.00
2019-04-22T02:00:38.643Z,17.95
2019-04-22T02:03:12.475Z,16.90
2019-04-22T02:05:37.623Z,17.52
2019-04-22T02:08:31.627Z,18.65
2019-04-22T02:10:54.795Z,17.27
2019-04-22T02:13:30.662Z,18.17
2019-04-22T02:16:03.522Z,19.12
2019-04-22T02:18:34.462Z,18.92
2019-04-22T02:21:00.148Z,18.82
2019-04-22T02:26:07.567Z,19.30
2019-04-22T02:32:19.468Z,18.92
2019-04-22T02:41:26.177Z,18.32
2019-04-22T02:49:01.860Z,18.80
2019-04-22T02:51:21.961Z,18.48
2019-04-22T03:01:39.620Z,19.23
2019-04-22T03:09:16.379Z,18.77
2019-04-22T03:11:59.198Z,18.98
2019-04-22T03:14:08.698Z,19.62
2019-04-22T03:16:37.507Z,18.77
2019-04-22T03:19:17.741Z,18.27
2019-04-22T03:21:54.565Z,18.05
2019-04-22T03:26:43.331Z,18.67
2019-04-22T03:29:28.759Z,18.57
2019-04-22T03:32:20.559Z,18.45
2019-04-22T03:35:16.143Z,18.25
2019-04-22T03:39:37.706Z,18.82
2019-04-22T03:42:05.830Z,18.87
2019-04-22T03:49:38.935Z,19.27
2019-04-22T03:52:10.751Z,19.02
2019-04-22T03:54:39.555Z,18.70
2019-04-22T04:00:15.728Z,19.62
2019-04-22T04:07:38.368Z,18.73
2019-04-22T04:14:46.600Z,19.23
2019-04-22T04:17:21.830Z,19.80
2019-04-22T04:19:59.879Z,18.65
2019-04-22T04:27:41.446Z,20.17
2019-04-22T04:37:40.911Z,18.35
2019-04-22T04:47:43.803Z,17.70
2019-04-22T04:50:06.859Z,18.70
2019-04-22T04:55:12.348Z,19.15
2019-04-22T05:00:32.631Z,19.95
2019-04-22T05:03:13.871Z,19.10
2019-04-22T05:05:14.420Z,19.62
2019-04-22T05:07:40.890Z,17.77
2019-04-22T05:10:37.404Z,18.52
2019-04-22T05:15:14.336Z,19.15
2019-04-22T05:17:50.651Z,19.23
2019-04-22T05:20:33.726Z,18.80
2019-04-22T05:22:39.738Z,19.62
2019-04-22T05:25:15.303Z,19.65
2019-04-22T05:30:23.192Z,19.07
2019-04-22T05:32:44.564Z,20.15
2019-04-22T05:35:14.483Z,20.27
2019-04-22T05:37:50.552Z,19.65
2019-04-22T05:40:22.098Z,19.02
2019-04-22T05:42:49.462Z,18.73
2019-04-22T05:45:21.641Z,19.30
2019-04-22T05:47:52.303Z,19.48
2019-04-22T05:50:20.429Z,19.32
2019-04-22T05:52:55.296Z,18.65
2019-04-22T05:55:43.593Z,19.17
2019-04-22T05:57:59.727Z,19.60
2019-04-22T06:05:34.363Z,19.02
2019-04-22T06:08:04.203Z,19.87
2019-04-22T06:13:06.581Z,19.85
2019-04-22T06:15:39.072Z,19.17
2019-04-22T06:23:30.694Z,18.52
2019-04-22T06:28:38.743Z,18.65
2019-04-22T06:31:02.554Z,18.02
2019-04-22T06:33:34.504Z,18.50
2019-04-22T06:36:03.693Z,19.80
2019-04-22T06:41:08.590Z,17.92
2019-04-22T06:43:35.235Z,19.02
2019-04-22T06:46:08.387Z,18.48
2019-04-22T06:48:34.661Z,17.98
2019-04-22T06:51:08.119Z,18.62
2019-04-22T06:56:11.158Z,16.57
2019-04-22T06:58:39.697Z,16.15
2019-04-22T07:01:19.634Z,17.07
2019-04-22T07:06:19.612Z,16.87
2019-04-22T07:11:18.839Z,15.48
2019-04-22T07:14:00.120Z,15.90
2019-04-22T07:16:28.863Z,14.90
2019-04-22T07:18:54.889Z,15.13
2019-04-22T07:21:26.062Z,13.38
2019-04-22T07:24:17.896Z,13.70
2019-04-22T07:26:24.164Z,13.48
2019-04-22T07:29:06.149Z,11.70
2019-04-22T07:31:45.074Z,11.90
2019-04-22T07:34:08.170Z,10.75
2019-04-22T07:39:06.636Z,12.00
2019-04-22T07:41:38.396Z,11.05
2019-04-22T07:44:29.570Z,11.43
2019-04-22T07:46:41.751Z,11.70
2019-04-22T07:49:10.610Z,12.03
2019-04-22T07:54:13.317Z,11.00
2019-04-22T07:56:53.871Z,11.93
2019-04-22T07:59:26.497Z,12.18
2019-04-22T08:01:48.374Z,10.23
2019-04-22T08:04:44.784Z,11.38
2019-04-22T08:06:58.928Z,11.20
2019-04-22T08:09:27.785Z,11.37
2019-04-22T08:11:53.868Z,10.70
2019-04-22T08:14:31.398Z,10.50
2019-04-22T08:17:14.164Z,10.05
2019-04-22T08:19:28.076Z,10.43
2019-04-22T08:22:07.924Z,9.23
2019-04-22T08:24:35.915Z,10.25
2019-04-22T08:27:04.546Z,9.13
2019-04-22T08:29:37.201Z,10.25
2019-04-22T08:32:05.097Z,9.48
2019-04-22T08:34:47.584Z,8.80
2019-04-22T08:37:35.637Z,9.10
2019-04-22T08:39:39.146Z,9.90
2019-04-22T08:42:13.660Z,9.13
2019-04-22T08:47:19.106Z,8.63
2019-04-22T08:49:53.032Z,7.73
2019-04-22T08:52:17.549Z,6.70
2019-04-22T08:54:45.004Z,7.92
2019-04-22T08:57:18.393Z,7.67
2019-04-22T08:59:49.024Z,7.83
2019-04-22T09:04:52.151Z,8.38
2019-04-22T09:09:50.658Z,8.47
2019-04-22T09:12:34.764Z,6.80
2019-04-22T09:14:52.109Z,7.67
2019-04-22T09:17:31.830Z,8.40
2019-04-22T09:20:02.237Z,7.65
2019-04-22T09:22:41.163Z,7.40
2019-04-22T09:24:57.407Z,8.98
2019-04-22T09:29:58.467Z,7.62
2019-04-22T09:32:36.373Z,7.35
2019-04-22T09:35:02.971Z,6.70
2019-04-22T09:37:40.762Z,7.62
2019-04-22T09:42:39.640Z,8.03
2019-04-22T09:45:13.255Z,7.35
2019-04-22T09:50:21.521Z,7.30
2019-04-22T09:52:49.622Z,6.92
2019-04-22T09:57:46.034Z,7.58
2019-04-22T10:00:46.365Z,6.75
2019-04-22T10:03:16.036Z,7.42
2019-04-22T10:05:41.135Z,6.17
2019-04-22T10:08:21.996Z,6.05
2019-04-22T10:10:44.678Z,5.72
2019-04-22T10:13:18.700Z,5.15
2019-04-22T10:15:52.213Z,4.97
2019-04-22T10:18:16.264Z,4.17
2019-04-22T10:20:49.373Z,4.25
2019-04-22T10:23:21.683Z,3.90
2019-04-22T10:25:52.572Z,4.15
2019-04-22T10:28:24.296Z,4.83
2019-04-22T10:30:52.842Z,4.17
2019-04-22T10:33:20.841Z,3.98
2019-04-22T10:35:32.220Z,3.90
2019-04-22T10:38:01.222Z,4.05
2019-04-22T10:40:36.449Z,3.83
2019-04-22T10:43:09.593Z,3.20
2019-04-22T10:45:39.793Z,4.12
2019-04-22T10:48:10.455Z,3.27
2019-04-22T10:50:46.607Z,4.58
2019-04-22T10:53:17.757Z,4.10
2019-04-22T10:55:49.875Z,3.80
2019-04-22T10:58:20.883Z,3.45
2019-04-22T11:00:52.078Z,3.50
2019-04-22T11:03:22.502Z,3.35
2019-04-22T11:05:53.918Z,5.15
2019-04-22T11:08:32.664Z,3.60
2019-04-22T11:11:07.124Z,3.45
2019-04-22T11:13:26.134Z,3.10
2019-04-22T11:15:55.943Z,3.12
2019-04-22T11:18:25.453Z,2.95
2019-04-22T11:20:55.742Z,3.22
2019-04-22T11:23:26.924Z,3.30
2019-04-22T11:25:57.725Z,3.35
2019-04-22T11:28:27.818Z,3.75
2019-04-22T11:30:58.720Z,3.67
2019-04-22T11:33:28.468Z,3.22
2019-04-22T11:35:57.897Z,4.08
2019-04-22T11:38:28.722Z,3.30
2019-04-22T11:40:59.999Z,3.40
2019-04-22T11:43:30.483Z,3.10
2019-04-22T11:46:01.298Z,3.83
2019-04-22T11:48:31.139Z,5.10
2019-04-22T11:51:01.944Z,3.60
2019-04-22T11:53:31.754Z,3.52
2019-04-22T11:56:02.673Z,3.72
2019-04-22T11:58:35.277Z,3.10
2019-04-22T12:01:06.616Z,3.70
2019-04-22T12:03:37.870Z,3.92
2019-04-22T12:06:08.386Z,4.50
2019-04-22T12:08:39.685Z,3.62
2019-04-22T12:11:09.901Z,3.77
2019-04-22T12:13:42.022Z,3.87
2019-04-22T12:16:11.700Z,3.95
2019-04-22T12:18:41.177Z,3.50
2019-04-22T12:21:10.989Z,4.00
2019-04-22T12:23:41.270Z,4.25
2019-04-22T12:26:15.052Z,3.67
2019-04-22T12:28:42.142Z,3.90
2019-04-22T12:31:11.709Z,3.10
2019-04-22T12:33:41.371Z,3.40
2019-04-22T12:36:12.648Z,3.60
2019-04-22T12:38:42.366Z,4.05
2019-04-22T12:41:13.668Z,2.95
2019-04-22T12:43:43.243Z,3.55
2019-04-22T12:46:12.634Z,3.17
2019-04-22T12:48:43.622Z,4.47
2019-04-22T12:51:13.377Z,3.12
2019-04-22T12:53:44.544Z,3.50
2019-04-22T12:56:15.418Z,3.50
2019-04-22T12:58:45.771Z,3.27
2019-04-22T13:01:15.405Z,3.80
2019-04-22T13:03:44.873Z,3.67
2019-04-22T13:06:14.363Z,4.25
2019-04-22T13:08:45.579Z,4.70
2019-04-22T13:11:18.495Z,4.37
2019-04-22T13:13:47.087Z,3.83
2019-04-22T13:16:17.490Z,4.03
2019-04-22T13:18:53.787Z,3.92
2019-04-22T13:21:18.641Z,5.17
2019-04-22T13:23:48.882Z,4.17
2019-04-22T13:26:18.990Z,5.15
2019-04-22T13:28:49.243Z,3.92
2019-04-22T13:31:20.739Z,3.70
2019-04-22T13:33:51.642Z,3.95
2019-04-22T13:36:23.739Z,3.87
2019-04-22T13:38:53.117Z,3.80
2019-04-22T13:41:31.788Z,3.52
2019-04-22T13:43:54.066Z,4.42
2019-04-22T13:46:24.076Z,4.90
2019-04-22T13:49:25.185Z,4.05
2019-04-22T13:51:52.481Z,4.10
2019-04-22T13:56:48.009Z,4.40
2019-04-22T13:59:09.237Z,3.58
2019-04-22T14:01:40.613Z,3.85
2019-04-22T14:04:12.591Z,4.25
2019-04-22T14:06:42.871Z,3.70
2019-04-22T14:09:13.690Z,3.87
2019-04-22T14:11:49.309Z,4.30
2019-04-22T14:14:15.608Z,4.08
2019-04-22T14:16:46.618Z,4.37
2019-04-22T14:19:16.465Z,4.35
2019-04-22T14:21:47.489Z,3.92
2019-04-22T14:24:17.868Z,4.35
2019-04-22T14:27:01.656Z,4.20
2019-04-22T14:29:19.713Z,4.55
2019-04-22T14:32:01.124Z,4.37
2019-04-22T14:34:20.869Z,4.58
2019-04-22T14:36:51.141Z,3.83
2019-04-22T14:39:22.007Z,4.37
2019-04-22T14:42:11.618Z,4.65
2019-04-22T14:45:13.435Z,4.62
2019-04-22T14:47:23.712Z,4.55
2019-04-22T14:49:47.313Z,3.92
2019-04-22T14:52:21.533Z,4.92
2019-04-22T14:54:41.632Z,4.20
2019-04-22T14:56:58.993Z,3.92
2019-04-22T14:59:29.188Z,4.03
2019-04-22T15:01:59.451Z,4.37
2019-04-22T15:04:29.078Z,3.87
2019-04-22T15:06:59.067Z,4.22
2019-04-22T15:09:29.990Z,4.62
2019-04-22T15:12:13.421Z,3.77
2019-04-22T15:14:33.155Z,4.17
2019-04-22T15:17:07.143Z,4.12
2019-04-22T15:19:41.178Z,3.87
2019-04-22T15:22:10.614Z,3.72
2019-04-22T15:24:40.700Z,4.03
2019-04-22T15:27:10.672Z,3.90
2019-04-22T15:29:41.177Z,4.00
2019-04-22T15:32:11.723Z,4.05
2019-04-22T15:34:41.630Z,4.03
2019-04-22T15:37:11.926Z,4.08
2019-04-22T15:39:41.798Z,3.77
2019-04-22T15:42:18.355Z,3.45
2019-04-22T15:44:42.356Z,3.37
2019-04-22T15:47:13.072Z,3.62
2019-04-22T15:49:42.932Z,3.35
2019-04-22T15:52:12.623Z,3.90
2019-04-22T15:54:43.607Z,4.37
2019-04-22T15:57:14.836Z,3.20
2019-04-22T16:00:02.511Z,3.60
2019-04-22T16:02:16.643Z,3.70
2019-04-22T16:04:46.566Z,3.58
2019-04-22T16:07:17.207Z,4.05
2019-04-22T16:09:47.887Z,3.55
2019-04-22T16:12:25.926Z,3.12
2019-04-22T16:14:54.566Z,3.37
2019-04-22T16:17:20.424Z,2.92
2019-04-22T16:19:50.930Z,3.30
2019-04-22T16:22:23.165Z,4.08
2019-04-22T16:24:54.151Z,3.20
2019-04-22T16:27:26.302Z,3.72
2019-04-22T16:29:57.184Z,3.90
2019-04-22T16:32:27.798Z,3.85
2019-04-22T16:34:58.685Z,3.67
2019-04-22T16:37:28.581Z,4.33
2019-04-22T16:39:58.931Z,3.83
2019-04-22T16:42:38.105Z,4.17
2019-04-22T16:44:59.713Z,2.95
2019-04-22T16:47:29.122Z,3.50
2019-04-22T16:49:59.613Z,3.10
2019-04-22T16:52:30.294Z,3.45
2019-04-22T16:55:00.997Z,3.72
2019-04-22T16:57:30.409Z,3.22
2019-04-22T17:00:00.482Z,3.50
2019-04-22T17:02:52.132Z,2.90
2019-04-22T17:05:31.952Z,3.40
2019-04-22T17:08:02.524Z,3.60
2019-04-22T17:10:33.541Z,3.35
2019-04-22T17:13:07.846Z,4.05
2019-04-22T17:15:35.278Z,3.72
2019-04-22T17:18:05.510Z,3.35
2019-04-22T17:20:36.055Z,3.12
2019-04-22T17:23:05.631Z,3.30
2019-04-22T17:25:36.210Z,3.58
2019-04-22T17:28:05.820Z,3.77
2019-04-22T17:30:35.978Z,3.72
2019-04-22T17:33:05.579Z,3.83
2019-04-22T17:35:36.042Z,4.65
2019-04-22T17:38:16.701Z,3.75
2019-04-22T17:40:52.241Z,3.40
2019-04-22T17:43:41.314Z,3.85
2019-04-22T17:46:03.092Z,3.65
2019-04-22T17:48:46.634Z,5.05
2019-04-22T17:51:29.891Z,4.30
2019-04-22T17:53:59.647Z,10.10
2019-04-22T17:56:27.630Z,5.83
2019-04-22T17:58:58.758Z,4.85
2019-04-22T18:01:29.911Z,5.53
2019-04-22T18:03:47.400Z,5.97
2019-04-22T18:06:39.223Z,4.92
2019-04-22T18:09:01.842Z,5.67
2019-04-22T18:11:39.591Z,5.78
2019-04-22T18:14:26.054Z,4.20
2019-04-22T18:16:37.088Z,3.77
2019-04-22T18:19:10.100Z,4.20
2019-04-22T18:21:36.191Z,4.15
2019-04-22T18:23:55.331Z,3.95
2019-04-22T18:26:43.534Z,3.00
2019-04-22T18:29:11.559Z,3.85
2019-04-22T18:31:37.171Z,3.87
2019-04-22T18:34:08.351Z,2.83
2019-04-22T18:36:43.645Z,3.25
2019-04-22T18:39:22.457Z,3.60
2019-04-22T18:41:46.141Z,3.72
2019-04-22T18:44:23.521Z,3.80
2019-04-22T18:46:51.265Z,3.50
2019-04-22T18:49:18.560Z,3.58
2019-04-22T18:52:05.779Z,3.50
2019-04-22T18:54:48.428Z,4.37
2019-04-22T18:57:18.259Z,4.25
2019-04-22T18:59:36.167Z,4.37
2019-04-22T19:02:08.555Z,5.53
2019-04-22T19:04:44.318Z,5.00
2019-04-22T19:07:36.848Z,5.37
2019-04-22T19:10:04.890Z,5.40
2019-04-22T19:12:34.407Z,5.37
2019-04-22T19:15:04.149Z,6.08
2019-04-22T19:17:40.453Z,5.97
2019-04-22T19:20:13.322Z,5.90
2019-04-22T19:22:36.727Z,4.92
2019-04-22T19:24:59.894Z,5.05
2019-04-22T19:27:35.951Z,4.58
2019-04-22T19:30:14.289Z,4.92
2019-04-22T19:32:42.015Z,3.87
2019-04-22T19:35:11.571Z,4.42
2019-04-22T19:37:38.400Z,4.75
2019-04-22T19:40:20.585Z,5.72
2019-04-22T19:42:52.630Z,5.35
2019-04-22T19:45:14.658Z,4.72
2019-04-22T19:47:50.107Z,4.37
2019-04-22T19:50:24.476Z,4.55
2019-04-22T19:52:51.384Z,4.30
2019-04-22T19:55:27.904Z,5.00
2019-04-22T19:57:48.945Z,4.00
2019-04-22T20:00:33.986Z,3.83
2019-04-22T20:03:16.546Z,4.50
2019-04-22T20:05:50.554Z,4.00
2019-04-22T20:08:22.900Z,4.03
2019-04-22T20:10:48.867Z,4.40
2019-04-22T20:13:24.336Z,4.10
2019-04-22T20:15:43.273Z,4.37
2019-04-22T20:18:41.930Z,3.87
2019-04-22T20:20:59.645Z,4.10
2019-04-22T20:23:18.213Z,4.05
2019-04-22T20:25:50.978Z,4.20
2019-04-22T20:28:32.672Z,3.95
2019-04-22T20:30:55.408Z,3.95
2019-04-22T20:33:43.097Z,3.65
2019-04-22T20:36:03.738Z,3.70
2019-04-22T20:38:30.735Z,3.70
2019-04-22T20:40:58.223Z,3.65
2019-04-22T20:43:44.830Z,3.35
2019-04-22T20:46:05.269Z,4.28
2019-04-22T20:48:41.147Z,4.58
2019-04-22T20:51:06.539Z,3.90
2019-04-22T20:53:46.053Z,3.60
2019-04-22T20:56:09.908Z,4.30
2019-04-22T20:58:38.782Z,3.77
2019-04-22T21:01:05.265Z,3.83
2019-04-22T21:03:33.303Z,4.10
2019-04-22T21:06:11.741Z,3.85
2019-04-22T21:08:48.633Z,3.80
2019-04-22T21:11:15.337Z,4.28
2019-04-22T21:13:41.098Z,4.45
2019-04-22T21:16:22.283Z,4.22
2019-04-22T21:18:44.660Z,4.35
2019-04-22T21:21:29.669Z,3.77
2019-04-22T21:23:47.702Z,3.50
2019-04-22T21:26:24.033Z,4.35
2019-04-22T21:28:53.829Z,4.33
2019-04-22T21:31:30.798Z,4.45
2019-04-22T21:34:01.132Z,4.47
2019-04-22T21:38:59.133Z,4.78
2019-04-22T21:41:30.685Z,4.35
2019-04-22T21:44:05.509Z,4.83
2019-04-22T21:46:35.240Z,4.55
2019-04-22T21:49:09.405Z,4.72
2019-04-22T21:51:39.750Z,4.80
2019-04-22T21:54:11.929Z,4.92
2019-04-22T21:57:01.519Z,4.90
2019-04-22T21:59:27.054Z,4.37
2019-04-22T22:02:04.137Z,4.80
2019-04-22T22:04:30.315Z,4.50
2019-04-22T22:06:57.137Z,4.60
2019-04-22T22:09:37.692Z,4.65
2019-04-22T22:12:05.220Z,4.87
2019-04-22T22:14:39.722Z,5.10
2019-04-22T22:17:02.019Z,5.33
2019-04-22T22:19:41.939Z,4.78
2019-04-22T22:22:28.132Z,5.25
2019-04-22T22:24:48.334Z,5.17
2019-04-22T22:27:17.217Z,4.70
2019-04-22T22:32:16.546Z,5.58
2019-04-22T22:34:46.506Z,4.97
2019-04-22T22:37:09.805Z,4.72
2019-04-22T22:39:39.286Z,5.25
2019-04-22T22:41:59.677Z,5.05
2019-04-22T22:44:38.017Z,4.33
2019-04-22T22:47:18.279Z,4.95
2019-04-22T22:49:53.127Z,4.20
2019-04-22T22:52:46.849Z,4.75
2019-04-22T22:54:58.931Z,4.67
2019-04-22T22:59:55.730Z,4.75
2019-04-22T23:02:28.770Z,4.92
2019-04-22T23:05:05.869Z,4.90
2019-04-22T23:07:37.414Z,4.55
2019-04-22T23:10:01.708Z,4.53
2019-04-22T23:12:40.538Z,4.47
2019-04-22T23:15:07.891Z,4.40
2019-04-22T23:17:22.295Z,4.25
2019-04-22T23:19:50.350Z,4.70
2019-04-22T23:22:26.784Z,4.87
2019-04-22T23:25:16.040Z,4.35
2019-04-22T23:30:32.197Z,5.37
2019-04-22T23:33:09.993Z,4.58
2019-04-22T23:35:56.605Z,4.87
2019-04-22T23:38:25.668Z,5.12
2019-04-22T23:41:00.157Z,4.17
2019-04-22T23:43:32.777Z,4.17
2019-04-22T23:46:05.790Z,4.10
2019-04-22T23:48:30.251Z,3.98
2019-04-22T23:51:13.604Z,4.62
2019-04-22T23:56:13.577Z,3.92
